Time;durP1;ratioP1;P1;durP2;ratioP2;P2;SDS_P1;SDS_P2;PMS_P1;PMS_P2;Temp;Humidity;BMP_temperature;BMP_pressure;BME280_temperature;BME280_humidity;BME280_pressure;Samples;Min_cycle;Max_cycle;Signal;HPM_P1;HPM_P2
2023/12/03 00:00:53;;;;;;;13.87;5.10;;;3.40;99.90;;;;;;5029332;28;20243;-77
2023/12/03 00:03:20;;;;;;;6.97;3.47;;;3.70;99.90;;;;;;5030744;28;20272;-78
2023/12/03 00:05:46;;;;;;;8.10;3.77;;;3.80;99.90;;;;;;5034546;28;20170;-77
2023/12/03 00:08:12;;;;;;;9.30;3.70;;;4.00;99.90;;;;;;5030614;28;20224;-77
2023/12/03 00:10:37;;;;;;;6.90;2.30;;;4.10;99.90;;;;;;5028627;28;20539;-77
2023/12/03 00:13:03;;;;;;;11.67;2.40;;;4.30;99.90;;;;;;5030098;28;20275;-77
2023/12/03 00:15:29;;;;;;;7.73;2.73;;;4.50;99.90;;;;;;5028979;28;20668;-77
2023/12/03 00:17:54;;;;;;;5.27;2.20;;;4.50;99.90;;;;;;5029576;28;20826;-77
2023/12/03 00:20:20;;;;;;;5.80;2.27;;;4.60;99.90;;;;;;5029890;28;20182;-77
2023/12/03 00:22:46;;;;;;;6.20;2.13;;;4.70;99.90;;;;;;5012479;28;20687;-77
2023/12/03 00:25:12;;;;;;;5.40;1.97;;;;;;;;;;5028753;28;20185;-76
2023/12/03 00:27:38;;;;;;;4.30;1.90;;;5.30;99.90;;;;;;5028782;28;20173;-77
2023/12/03 00:30:04;;;;;;;2.90;1.30;;;4.80;99.90;;;;;;5030347;28;20185;-77
2023/12/03 00:32:29;;;;;;;3.23;1.47;;;4.80;99.90;;;;;;5010869;28;20217;-77
2023/12/03 00:34:55;;;;;;;2.97;1.60;;;4.80;99.90;;;;;;5030041;28;20173;-76
2023/12/03 00:37:21;;;;;;;5.23;1.90;;;4.90;99.90;;;;;;5028984;28;20182;-76
2023/12/03 00:39:46;;;;;;;2.00;0.97;;;5.50;99.90;;;;;;5028869;28;20655;-76
2023/12/03 00:42:12;;;;;;;6.43;1.77;;;4.60;99.90;;;;;;5029339;28;20249;-77
2023/12/03 00:44:38;;;;;;;4.30;1.60;;;;;;;;;;5031247;28;20706;-76
2023/12/03 00:47:04;;;;;;;4.63;1.80;;;5.20;99.90;;;;;;5029529;28;20213;-76
2023/12/03 00:49:29;;;;;;;4.63;1.57;;;4.90;99.90;;;;;;5031778;28;20232;-76
2023/12/03 00:51:56;;;;;;;7.63;1.90;;;4.80;99.90;;;;;;5013079;28;20703;-76
2023/12/03 00:54:21;;;;;;;4.83;1.70;;;4.90;99.90;;;;;;5033960;28;20200;-76
2023/12/03 00:56:47;;;;;;;5.53;1.57;;;4.90;99.90;;;;;;5034807;28;20174;-76
2023/12/03 00:59:13;;;;;;;3.83;1.40;;;4.70;99.90;;;;;;5032459;28;20974;-76
2023/12/03 01:01:38;;;;;;;5.23;1.63;;;4.90;99.90;;;;;;5015366;28;20284;-75
2023/12/03 01:04:04;;;;;;;2.97;1.50;;;4.60;99.90;;;;;;5032265;28;20200;-74
2023/12/03 01:06:29;;;;;;;6.03;1.70;;;4.80;99.90;;;;;;5034268;28;20689;-74
2023/12/03 01:08:55;;;;;;;4.93;1.60;;;4.70;99.90;;;;;;5032719;28;20208;-75
2023/12/03 01:11:21;;;;;;;5.30;1.80;;;4.60;99.90;;;;;;5033252;28;20531;-75
2023/12/03 01:13:46;;;;;;;4.23;2.07;;;4.80;99.90;;;;;;5033277;28;20742;-75
2023/12/03 01:16:16;;;;;;;5.37;1.73;;;4.70;99.90;;;;;;5033234;28;20209;-77
2023/12/03 01:18:42;;;;;;;4.13;1.77;;;5.50;99.90;;;;;;5033415;28;20188;-76
2023/12/03 01:21:07;;;;;;;2.50;1.53;;;5.20;99.90;;;;;;5032130;28;20174;-76
2023/12/03 01:23:33;;;;;;;3.73;1.80;;;4.30;99.90;;;;;;5051897;28;20170;-76
2023/12/03 01:25:59;;;;;;;4.10;1.80;;;4.80;99.90;;;;;;5052764;28;20182;-76
2023/12/03 01:28:25;;;;;;;4.30;1.93;;;4.60;99.90;;;;;;5035805;28;20194;-76
2023/12/03 01:30:50;;;;;;;4.87;1.83;;;4.80;99.90;;;;;;5032348;28;20174;-77
2023/12/03 01:33:16;;;;;;;6.23;1.90;;;4.60;99.90;;;;;;5032909;28;20696;-77
2023/12/03 01:35:42;;;;;;;6.27;1.93;;;4.70;99.90;;;;;;5013472;28;20185;-76
2023/12/03 01:38:08;;;;;;;4.77;2.10;;;4.60;99.90;;;;;;5033043;28;20178;-75
2023/12/03 01:40:34;;;;;;;5.47;1.97;;;;;;;;;;5032009;28;20218;-76
2023/12/03 01:43:00;;;;;;;3.33;1.83;;;4.70;99.90;;;;;;5032070;28;20178;-76
2023/12/03 01:45:25;;;;;;;4.93;1.67;;;5.00;99.90;;;;;;5032529;28;20578;-76
2023/12/03 01:47:51;;;;;;;4.57;1.90;;;4.80;99.90;;;;;;5031414;28;20181;-76
2023/12/03 01:50:18;;;;;;;3.93;1.77;;;4.90;99.90;;;;;;5032907;28;20181;-76
2023/12/03 01:52:44;;;;;;;3.40;1.70;;;;;;;;;;5030421;28;20214;-76
2023/12/03 01:55:16;;;;;;;6.97;1.70;;;5.30;99.90;;;;;;5032837;28;20247;-76
2023/12/03 01:57:42;;;;;;;4.23;1.53;;;5.10;99.90;;;;;;5031875;28;20255;-76
2023/12/03 02:00:09;;;;;;;4.83;1.53;;;5.00;99.90;;;;;;5032100;28;20266;-76
2023/12/03 02:02:35;;;;;;;8.17;1.93;;;6.00;99.90;;;;;;5031960;28;20182;-76
2023/12/03 02:05:01;;;;;;;4.37;1.73;;;4.70;99.90;;;;;;5026806;28;20204;-76
2023/12/03 02:07:26;;;;;;;6.30;1.80;;;4.90;99.90;;;;;;5031214;28;20197;-76
2023/12/03 02:09:52;;;;;;;3.60;1.53;;;4.90;99.90;;;;;;5031690;28;20578;-77
2023/12/03 02:12:18;;;;;;;4.53;1.77;;;5.00;99.90;;;;;;5031435;28;20299;-76
2023/12/03 02:14:44;;;;;;;5.37;1.60;;;5.20;99.90;;;;;;5038855;28;20174;-76
2023/12/03 02:17:10;;;;;;;5.00;1.63;;;5.10;99.90;;;;;;5035548;28;20205;-75
2023/12/03 02:19:36;;;;;;;5.17;1.73;;;5.00;99.90;;;;;;5031243;28;20188;-75
2023/12/03 02:22:02;;;;;;;3.90;1.47;;;4.70;99.90;;;;;;5032675;28;20182;-76
2023/12/03 02:24:27;;;;;;;2.37;1.30;;;5.00;99.90;;;;;;5030560;28;20664;-77
2023/12/03 02:26:53;;;;;;;4.60;1.57;;;;;;;;;;5032251;28;20205;-80
2023/12/03 02:29:19;;;;;;;3.07;1.00;;;5.10;99.90;;;;;;5030529;28;20184;-78
2023/12/03 02:31:45;;;;;;;3.40;1.70;;;5.00;99.90;;;;;;5031348;28;20213;-81
2023/12/03 02:34:13;;;;;;;2.80;1.27;;;5.60;99.90;;;;;;5030470;28;20216;-80
2023/12/03 02:36:39;;;;;;;4.37;1.50;;;5.20;99.90;;;;;;5032104;28;20591;-79
2023/12/03 02:39:05;;;;;;;6.57;1.23;;;5.20;99.90;;;;;;5012528;28;20205;-80
2023/12/03 02:41:31;;;;;;;4.60;1.50;;;5.20;99.90;;;;;;5031196;28;20261;-80
2023/12/03 02:43:57;;;;;;;3.47;1.50;;;5.00;99.90;;;;;;5031782;28;20529;-79
2023/12/03 02:46:23;;;;;;;3.93;1.43;;;5.20;99.90;;;;;;5030999;28;20212;-79
2023/12/03 02:48:49;;;;;;;4.97;1.43;;;5.10;99.90;;;;;;5031119;28;20190;-78
2023/12/03 02:51:14;;;;;;;4.10;1.57;;;5.10;99.90;;;;;;5030268;28;20189;-78
2023/12/03 02:53:41;;;;;;;2.57;1.60;;;4.70;99.90;;;;;;5030752;28;20213;-79
2023/12/03 02:56:07;;;;;;;6.40;1.60;;;4.70;99.90;;;;;;5030141;28;20219;-78
2023/12/03 02:58:33;;;;;;;4.93;1.40;;;5.00;99.90;;;;;;5031931;28;20256;-77
2023/12/03 03:00:59;;;;;;;5.27;1.40;;;4.90;99.90;;;;;;5030038;28;20642;-77
2023/12/03 03:03:25;;;;;;;5.17;1.40;;;4.80;99.90;;;;;;5030978;28;20188;-78
2023/12/03 03:05:51;;;;;;;3.93;1.40;;;;;;;;;;5030366;28;20586;-78
2023/12/03 03:08:16;;;;;;;2.03;1.17;;;5.20;99.90;;;;;;5013810;28;20267;-77
2023/12/03 03:10:42;;;;;;;6.03;1.57;;;5.10;99.90;;;;;;5030087;28;20217;-78
2023/12/03 03:13:08;;;;;;;3.77;1.10;;;5.10;99.90;;;;;;5030151;28;20411;-77
2023/12/03 03:15:34;;;;;;;7.20;1.47;;;5.00;99.90;;;;;;5031070;28;20174;-77
2023/12/03 03:18:00;;;;;;;2.97;1.17;;;4.90;99.90;;;;;;5032633;28;20209;-78
2023/12/03 03:20:27;;;;;;;6.00;1.40;;;5.10;99.90;;;;;;5031313;28;20224;-77
2023/12/03 03:22:53;;;;;;;2.73;1.17;;;4.90;99.90;;;;;;5029887;28;20232;-78
2023/12/03 03:25:18;;;;;;;2.30;1.20;;;5.10;99.90;;;;;;5030506;28;20190;-77
2023/12/03 03:27:44;;;;;;;5.33;1.23;;;4.90;99.90;;;;;;5029824;28;20186;-77
2023/12/03 03:30:10;;;;;;;2.30;1.00;;;5.10;99.90;;;;;;5030845;28;20213;-78
2023/12/03 03:32:36;;;;;;;4.33;1.53;;;4.90;99.90;;;;;;5031158;28;20224;-78
2023/12/03 03:35:05;;;;;;;4.33;1.53;;;;;;;;;;5033714;28;20174;-76
2023/12/03 03:37:31;;;;;;;4.50;1.27;;;4.80;99.90;;;;;;5039229;28;20174;-77
2023/12/03 03:39:57;;;;;;;5.47;1.40;;;4.80;99.90;;;;;;5043409;28;20225;-78
2023/12/03 03:42:22;;;;;;;6.03;1.50;;;4.70;99.90;;;;;;5053986;28;20180;-77
2023/12/03 03:44:49;;;;;;;3.73;1.60;;;4.80;99.90;;;;;;5045805;28;20182;-77
2023/12/03 03:47:15;;;;;;;3.60;1.50;;;4.60;99.90;;;;;;5033378;28;20281;-78
2023/12/03 03:49:41;;;;;;;4.73;1.73;;;4.40;99.90;;;;;;5029525;28;20184;-77
2023/12/03 03:52:07;;;;;;;5.93;1.40;;;;;;;;;;5029334;28;20718;-80
2023/12/03 03:54:38;;;;;;;3.73;1.77;;;4.40;99.90;;;;;;5030143;28;20201;-78
2023/12/03 03:57:04;;;;;;;4.20;1.60;;;;;;;;;;5030142;28;20177;-78
2023/12/03 03:59:30;;;;;;;2.77;1.60;;;4.70;99.90;;;;;;5028214;28;20656;-78
2023/12/03 04:01:55;;;;;;;4.77;1.60;;;4.50;99.90;;;;;;5029189;28;20300;-78
2023/12/03 04:04:21;;;;;;;4.10;1.70;;;4.40;99.90;;;;;;5028973;28;20194;-80
2023/12/03 04:06:47;;;;;;;4.93;1.93;;;4.40;99.90;;;;;;5030571;28;20174;-81
2023/12/03 04:09:13;;;;;;;5.80;1.77;;;4.40;99.90;;;;;;5029630;28;20182;-80
2023/12/03 04:11:44;;;;;;;6.97;2.23;;;4.30;99.90;;;;;;5029169;28;20182;-81
2023/12/03 04:14:12;;;;;;;3.20;1.70;;;4.60;99.90;;;;;;5010458;28;20193;-80
2023/12/03 04:16:38;;;;;;;4.53;2.23;;;4.50;99.90;;;;;;5029690;28;20197;-81
2023/12/03 04:19:05;;;;;;;5.77;2.60;;;4.50;99.90;;;;;;5030239;28;20174;-81
2023/12/03 04:21:31;;;;;;;6.20;2.60;;;4.60;99.90;;;;;;5029320;28;20185;-81
2023/12/03 04:23:57;;;;;;;4.03;2.23;;;4.40;99.90;;;;;;5029598;28;20643;-80
2023/12/03 04:26:24;;;;;;;4.97;2.30;;;4.40;99.90;;;;;;5028953;28;20178;-80
2023/12/03 04:28:49;;;;;;;7.00;2.50;;;4.70;99.90;;;;;;5025989;28;20174;-80
2023/12/03 04:31:16;;;;;;;3.70;2.03;;;4.60;99.90;;;;;;5027966;28;20195;-79
2023/12/03 04:33:42;;;;;;;4.03;2.50;;;4.80;99.90;;;;;;5030715;28;20218;-80
2023/12/03 04:36:08;;;;;;;7.53;2.63;;;4.30;99.90;;;;;;5028871;28;20666;-80
2023/12/03 04:38:35;;;;;;;5.90;2.33;;;4.30;99.90;;;;;;5011864;28;20223;-80
2023/12/03 04:41:01;;;;;;;7.57;2.63;;;4.60;99.90;;;;;;5028501;28;20220;-80
2023/12/03 04:43:26;;;;;;;10.10;2.60;;;3.70;99.90;;;;;;5030283;28;20178;-79
2023/12/03 04:45:52;;;;;;;5.60;2.20;;;4.70;99.90;;;;;;5030059;28;20543;-79
2023/12/03 04:48:18;;;;;;;5.33;2.30;;;4.30;99.90;;;;;;5028475;28;20655;-80
2023/12/03 04:50:43;;;;;;;7.37;2.30;;;4.60;99.90;;;;;;5029747;28;20182;-80
2023/12/03 04:53:09;;;;;;;8.37;2.40;;;3.70;99.90;;;;;;5028329;28;20217;-80
2023/12/03 04:55:35;;;;;;;5.57;2.40;;;4.20;99.90;;;;;;5030921;28;20178;-76
2023/12/03 04:58:00;;;;;;;6.70;2.83;;;4.20;99.90;;;;;;5031428;28;20194;-79
2023/12/03 05:00:26;;;;;;;4.60;2.30;;;4.40;99.90;;;;;;5036817;28;20174;-78
2023/12/03 05:02:51;;;;;;;7.97;2.80;;;4.20;99.90;;;;;;5029430;28;20297;-78
2023/12/03 05:05:17;;;;;;;7.40;2.73;;;4.00;99.90;;;;;;5029472;28;20239;-79
2023/12/03 05:07:43;;;;;;;7.83;2.77;;;4.10;99.90;;;;;;5028267;28;20178;-79
2023/12/03 05:10:08;;;;;;;8.37;3.13;;;4.30;99.90;;;;;;5024736;28;20269;-79
2023/12/03 05:12:34;;;;;;;7.73;3.13;;;4.20;99.90;;;;;;5029045;28;20300;-76
2023/12/03 05:15:00;;;;;;;6.47;3.00;;;4.10;99.90;;;;;;5043217;28;20178;-77
2023/12/03 05:17:25;;;;;;;7.10;2.70;;;4.20;99.90;;;;;;5029482;28;20248;-76
2023/12/03 05:19:51;;;;;;;5.67;2.80;;;;;;;;;;5028056;28;20304;-77
2023/12/03 05:22:17;;;;;;;7.77;2.63;;;4.30;99.90;;;;;;5028585;28;20187;-77
2023/12/03 05:24:43;;;;;;;5.33;2.80;;;4.20;99.90;;;;;;5027001;28;20167;-77
2023/12/03 05:27:08;;;;;;;7.10;3.23;;;4.30;99.90;;;;;;5029183;28;20253;-77
2023/12/03 05:29:34;;;;;;;7.30;3.20;;;4.10;99.90;;;;;;5028085;28;20188;-77
2023/12/03 05:31:59;;;;;;;5.67;2.80;;;4.20;99.90;;;;;;5027687;28;20228;-76
2023/12/03 05:34:25;;;;;;;5.83;3.00;;;4.50;99.90;;;;;;5028444;28;20571;-77
2023/12/03 05:36:52;;;;;;;5.40;2.93;;;4.10;99.90;;;;;;5028115;28;20262;-77
2023/12/03 05:39:18;;;;;;;7.07;3.07;;;;;;;;;;5031727;28;20721;-77
2023/12/03 05:41:44;;;;;;;5.17;2.40;;;4.40;99.90;;;;;;5031803;28;20177;-80
2023/12/03 05:44:09;;;;;;;7.37;3.03;;;4.20;99.90;;;;;;5033132;28;20265;-79
2023/12/03 05:46:44;;;;;;;7.30;2.77;;;4.20;99.90;;;;;;5032190;28;20641;-78
2023/12/03 05:49:10;;;;;;;4.97;2.80;;;4.10;99.90;;;;;;5032885;28;20177;-79
2023/12/03 05:51:36;;;;;;;7.40;2.83;;;4.20;99.90;;;;;;5027728;28;20189;-79
2023/12/03 05:54:01;;;;;;;7.50;2.63;;;4.20;99.90;;;;;;5031958;28;20260;-79
2023/12/03 05:56:28;;;;;;;7.30;2.53;;;3.80;99.90;;;;;;5031900;28;20288;-80
2023/12/03 05:58:54;;;;;;;6.20;2.67;;;4.20;99.90;;;;;;5032277;28;20656;-79
2023/12/03 06:01:24;;;;;;;6.90;2.73;;;3.40;99.90;;;;;;5054241;28;20189;-78
2023/12/03 06:03:49;;;;;;;4.20;2.60;;;3.70;99.90;;;;;;5048731;28;20189;-78
2023/12/03 06:06:16;;;;;;;5.10;2.60;;;4.40;99.90;;;;;;5033507;28;20178;-80
2023/12/03 06:08:42;;;;;;;5.93;2.47;;;4.10;99.90;;;;;;5028788;28;20209;-78
2023/12/03 06:11:07;;;;;;;4.03;2.70;;;4.10;99.90;;;;;;5014341;28;20650;-77
2023/12/03 06:13:33;;;;;;;4.70;2.50;;;4.00;99.90;;;;;;5031469;28;20213;-77
2023/12/03 06:15:59;;;;;;;5.93;2.50;;;4.10;99.90;;;;;;5032289;28;20178;-77
2023/12/03 06:18:24;;;;;;;4.60;2.30;;;4.20;99.90;;;;;;5030431;28;20190;-77
2023/12/03 06:20:51;;;;;;;5.60;2.70;;;4.20;99.90;;;;;;5032513;28;20178;-77
2023/12/03 06:23:17;;;;;;;5.00;2.40;;;4.20;99.90;;;;;;5030529;28;20190;-75
2023/12/03 06:25:43;;;;;;;5.03;2.63;;;4.20;99.90;;;;;;5031528;28;20247;-76
2023/12/03 06:28:09;;;;;;;8.60;2.50;;;4.00;99.90;;;;;;5030510;28;20193;-76
2023/12/03 06:30:35;;;;;;;82.63;5.57;;;4.50;99.90;;;;;;5032004;28;20335;-75
2023/12/03 06:33:01;;;;;;;49.37;4.83;;;4.20;99.90;;;;;;5031003;28;20782;-76
2023/12/03 06:35:26;;;;;;;15.53;3.17;;;4.20;99.90;;;;;;5031272;28;20185;-76
2023/12/03 06:37:52;;;;;;;148.43;7.70;;;4.40;99.90;;;;;;5031563;28;20223;-76
2023/12/03 06:40:18;;;;;;;8.60;3.30;;;4.10;99.90;;;;;;5012911;28;20549;-80
2023/12/03 06:42:44;;;;;;;6.83;2.30;;;4.30;99.90;;;;;;5031147;28;20181;-74
2023/12/03 06:45:11;;;;;;;3.70;2.50;;;4.10;99.90;;;;;;5030369;28;20185;-74
2023/12/03 06:47:37;;;;;;;6.37;3.07;;;4.10;99.90;;;;;;5023823;28;20257;-74
2023/12/03 06:50:03;;;;;;;8.97;3.30;;;4.10;99.90;;;;;;5030070;28;20644;-75
2023/12/03 06:52:29;;;;;;;5.60;2.90;;;4.30;99.90;;;;;;5030848;28;20292;-74
2023/12/03 06:54:54;;;;;;;7.20;2.77;;;4.20;99.90;;;;;;5030034;28;20301;-75
2023/12/03 06:57:20;;;;;;;6.60;2.30;;;4.20;99.90;;;;;;5031573;28;20185;-74
2023/12/03 06:59:46;;;;;;;49.10;4.10;;;4.40;99.90;;;;;;5029987;28;20231;-75
2023/12/03 07:02:11;;;;;;;10.20;2.33;;;4.30;99.90;;;;;;5030761;28;20193;-74
2023/12/03 07:04:37;;;;;;;7.10;2.47;;;4.10;99.90;;;;;;5030877;28;20188;-75
2023/12/03 07:07:04;;;;;;;46.53;4.27;;;4.20;99.90;;;;;;5029846;28;20192;-75
2023/12/03 07:09:30;;;;;;;5.50;2.83;;;4.30;99.90;;;;;;5030135;28;20265;-75
2023/12/03 07:11:55;;;;;;;6.17;3.17;;;3.90;99.90;;;;;;5028564;28;20288;-75
2023/12/03 07:14:21;;;;;;;6.40;2.83;;;4.20;99.90;;;;;;5030338;28;20174;-75
2023/12/03 07:16:47;;;;;;;6.97;3.03;;;4.10;99.90;;;;;;5029905;28;20598;-75
2023/12/03 07:19:13;;;;;;;43.57;3.83;;;4.20;99.90;;;;;;5013092;28;20181;-74
2023/12/03 07:21:39;;;;;;;8.50;2.73;;;4.10;99.90;;;;;;5028889;28;20179;-75
2023/12/03 07:24:05;;;;;;;5.07;2.50;;;4.10;99.90;;;;;;5031746;28;20185;-75
2023/12/03 07:26:31;;;;;;;5.87;2.90;;;;;;;;;;5029499;28;20174;-74
2023/12/03 07:28:57;;;;;;;10.03;3.43;;;4.20;99.90;;;;;;5030396;28;20205;-75
2023/12/03 07:31:23;;;;;;;5.03;2.80;;;;;;;;;;5030494;28;20714;-75
2023/12/03 07:33:49;;;;;;;5.93;2.60;;;;;;;;;;5030327;28;20378;-75
2023/12/03 07:36:15;;;;;;;372.13;16.60;;;4.40;99.90;;;;;;5030985;28;20177;-75
2023/12/03 07:38:41;;;;;;;7.13;3.10;;;;;;;;;;5028503;28;20204;-75
2023/12/03 07:41:10;;;;;;;42.63;4.13;;;4.00;99.90;;;;;;5030927;28;20268;-74
2023/12/03 07:43:36;;;;;;;5.50;2.57;;;4.40;99.90;;;;;;5030128;28;20274;-74
2023/12/03 07:46:02;;;;;;;8.17;3.00;;;4.10;99.90;;;;;;5038102;28;20336;-74
2023/12/03 07:48:27;;;;;;;8.00;3.10;;;4.20;99.90;;;;;;5032135;28;20660;-74
2023/12/03 07:50:53;;;;;;;5.13;2.80;;;4.00;99.90;;;;;;5031205;28;20182;-75
2023/12/03 07:53:19;;;;;;;6.70;3.07;;;4.30;99.90;;;;;;5030183;28;20711;-75
2023/12/03 07:55:44;;;;;;;73.10;5.80;;;4.10;99.90;;;;;;5031358;28;20252;-75
2023/12/03 07:58:10;;;;;;;10.90;3.17;;;4.20;99.90;;;;;;5012699;28;20276;-75
2023/12/03 08:00:37;;;;;;;12.60;3.53;;;4.20;99.90;;;;;;5030464;28;20178;-77
2023/12/03 08:03:03;;;;;;;57.93;4.63;;;4.10;99.90;;;;;;5012014;28;20273;-75
2023/12/03 08:05:28;;;;;;;9.87;3.20;;;4.30;99.90;;;;;;5029634;28;20184;-75
2023/12/03 08:07:54;;;;;;;5.30;2.87;;;4.10;99.90;;;;;;5029379;28;20174;-76
2023/12/03 08:10:20;;;;;;;10.97;2.97;;;4.30;99.90;;;;;;5026771;28;20185;-76
2023/12/03 08:12:46;;;;;;;6.60;3.20;;;3.90;99.90;;;;;;5022543;28;20217;-74
2023/12/03 08:15:11;;;;;;;14.00;6.13;;;4.20;99.90;;;;;;5028741;28;20171;-74
2023/12/03 08:17:37;;;;;;;7.20;2.90;;;4.00;99.90;;;;;;5035710;28;20173;-73
2023/12/03 08:20:05;;;;;;;8.07;2.80;;;4.20;99.90;;;;;;5036030;28;20170;-75
2023/12/03 08:22:31;;;;;;;8.33;2.90;;;4.10;99.90;;;;;;5037104;28;20190;-76
2023/12/03 08:24:57;;;;;;;6.93;3.23;;;4.10;99.90;;;;;;5031220;28;20232;-75
2023/12/03 08:27:23;;;;;;;8.47;3.43;;;4.00;99.90;;;;;;5030046;28;20182;-74
2023/12/03 08:29:48;;;;;;;9.43;3.17;;;4.20;99.90;;;;;;5029913;28;20185;-74
2023/12/03 08:32:14;;;;;;;5.00;2.67;;;3.60;99.90;;;;;;5029859;28;20240;-75
2023/12/03 08:34:40;;;;;;;6.93;3.47;;;4.60;99.90;;;;;;5030768;28;20204;-76
2023/12/03 08:37:05;;;;;;;6.20;3.10;;;4.40;99.90;;;;;;5029827;28;20210;-75
2023/12/03 08:39:31;;;;;;;7.97;3.33;;;4.50;99.90;;;;;;5030138;28;20227;-75
2023/12/03 08:41:57;;;;;;;7.73;2.93;;;4.40;99.90;;;;;;5028586;28;20635;-77
2023/12/03 08:44:25;;;;;;;10.80;3.03;;;4.30;99.90;;;;;;5030116;28;20708;-76
2023/12/03 08:46:51;;;;;;;8.13;3.10;;;4.30;99.90;;;;;;5029858;28;20280;-76
2023/12/03 08:49:17;;;;;;;10.43;3.30;;;4.40;99.90;;;;;;5029369;28;20277;-75
2023/12/03 08:51:43;;;;;;;5.87;3.13;;;5.30;99.90;;;;;;5010678;28;20259;-75
2023/12/03 08:54:09;;;;;;;7.77;3.17;;;4.50;99.90;;;;;;5030002;28;20186;-73
2023/12/03 08:56:34;;;;;;;7.90;3.23;;;4.70;99.90;;;;;;5028468;28;20170;-74
2023/12/03 08:59:00;;;;;;;13.47;5.10;;;4.30;99.90;;;;;;5029516;28;20227;-75
2023/12/03 09:01:26;;;;;;;14.97;6.80;;;4.10;99.90;;;;;;5009168;28;20186;-73
2023/12/03 09:03:51;;;;;;;16.40;7.13;;;4.10;99.90;;;;;;5029787;28;20178;-77
2023/12/03 09:06:17;;;;;;;19.43;7.80;;;4.50;99.90;;;;;;5031188;28;20193;-76
2023/12/03 09:08:43;;;;;;;20.57;7.10;;;4.70;99.90;;;;;;5029292;28;20190;-76
2023/12/03 09:11:09;;;;;;;15.30;5.50;;;4.60;99.90;;;;;;5030711;28;20543;-76
2023/12/03 09:13:35;;;;;;;11.10;3.87;;;4.60;99.90;;;;;;5031360;28;20225;-77
2023/12/03 09:16:01;;;;;;;10.53;4.93;;;4.60;99.90;;;;;;5034164;28;20181;-77
2023/12/03 09:18:28;;;;;;;18.23;6.93;;;4.60;99.90;;;;;;5033692;28;20247;-76
2023/12/03 09:20:53;;;;;;;15.90;6.63;;;4.30;99.90;;;;;;5009670;28;20336;-76
2023/12/03 09:23:19;;;;;;;19.80;7.03;;;4.70;99.90;;;;;;5032710;28;20186;-76
2023/12/03 09:25:45;;;;;;;15.43;6.47;;;;;;;;;;5034125;28;20550;-77
2023/12/03 09:28:11;;;;;;;13.50;6.37;;;4.90;99.90;;;;;;5033292;28;20178;-75
2023/12/03 09:30:37;;;;;;;15.03;5.40;;;4.70;99.90;;;;;;5034288;28;20589;-75
2023/12/03 09:33:04;;;;;;;12.77;6.13;;;4.80;99.90;;;;;;5036153;28;20213;-74
2023/12/03 09:35:31;;;;;;;9.03;4.33;;;4.90;99.90;;;;;;5035989;28;20194;-74
2023/12/03 09:37:56;;;;;;;9.37;4.33;;;5.00;99.90;;;;;;5031198;28;20268;-75
2023/12/03 09:40:23;;;;;;;9.37;4.43;;;5.30;99.90;;;;;;5019193;28;20257;-76
2023/12/03 09:42:50;;;;;;;9.50;4.73;;;5.20;99.90;;;;;;5035264;28;20663;-76
2023/12/03 09:45:19;;;;;;;11.27;5.00;;;5.20;99.90;;;;;;5033386;28;20296;-75
2023/12/03 09:47:49;;;;;;;13.03;5.17;;;5.40;99.90;;;;;;5032918;28;20720;-75
2023/12/03 09:50:16;;;;;;;11.83;5.07;;;5.30;99.90;;;;;;5033952;28;20209;-76
2023/12/03 09:52:45;;;;;;;12.57;5.10;;;5.30;99.90;;;;;;5033244;28;20217;-74
2023/12/03 09:55:12;;;;;;;11.83;5.73;;;5.40;99.90;;;;;;5033486;28;20178;-74
2023/12/03 09:57:41;;;;;;;10.93;5.43;;;5.40;99.90;;;;;;5032326;28;20184;-74
2023/12/03 10:00:07;;;;;;;11.70;4.17;;;5.40;99.90;;;;;;5031392;28;20188;-77
2023/12/03 10:02:34;;;;;;;8.03;3.50;;;5.50;99.90;;;;;;5033888;28;20186;-77
2023/12/03 10:05:00;;;;;;;5.77;2.90;;;;;;;;;;5017187;28;20181;-73
2023/12/03 10:07:28;;;;;;;3.77;2.27;;;5.70;99.90;;;;;;5036208;28;20201;-75
2023/12/03 10:09:58;;;;;;;7.87;3.90;;;5.80;99.90;;;;;;5035057;28;20177;-77
2023/12/03 10:12:32;;;;;;;5.10;2.80;;;5.80;99.90;;;;;;5033586;28;20228;-78
2023/12/03 10:14:59;;;;;;;4.33;2.10;;;5.50;99.90;;;;;;5017626;28;20210;-78
2023/12/03 10:17:25;;;;;;;3.67;2.10;;;5.90;99.90;;;;;;5033156;28;20189;-80
2023/12/03 10:19:53;;;;;;;3.40;2.00;;;3.50;99.90;;;;;;5005757;28;20536;-82
2023/12/03 10:22:30;;;;;;;7.10;2.63;;;6.00;99.90;;;;;;5034041;28;20194;-76
2023/12/03 10:24:56;;;;;;;5.33;2.20;;;5.90;99.90;;;;;;5028185;28;20186;-74
2023/12/03 10:27:31;;;;;;;6.90;3.03;;;5.90;99.90;;;;;;5033068;28;20247;-75
2023/12/03 10:29:56;;;;;;;5.03;2.60;;;6.40;99.90;;;;;;5035744;28;20205;-74
2023/12/03 10:32:22;;;;;;;4.20;2.20;;;6.30;99.90;;;;;;5042115;28;20208;-75
2023/12/03 10:34:50;;;;;;;3.67;2.13;;;6.10;99.90;;;;;;5038968;28;20182;-75
2023/12/03 10:37:16;;;;;;;4.53;2.03;;;6.90;99.90;;;;;;5030960;28;20186;-76
2023/12/03 10:39:41;;;;;;;5.63;2.27;;;6.50;99.90;;;;;;5045643;28;20240;-75
2023/12/03 10:42:08;;;;;;;4.83;2.27;;;6.40;99.90;;;;;;5053532;28;20250;-75
2023/12/03 10:44:38;;;;;;;5.50;2.20;;;6.50;99.90;;;;;;5050416;28;20182;-75
2023/12/03 10:47:04;;;;;;;4.23;1.63;;;6.50;99.90;;;;;;5032943;28;20304;-76
2023/12/03 10:49:31;;;;;;;4.13;1.70;;;6.60;99.90;;;;;;5033911;28;20201;-74
2023/12/03 10:51:58;;;;;;;3.87;1.23;;;6.60;99.90;;;;;;5031047;28;20738;-75
2023/12/03 10:54:25;;;;;;;2.27;1.20;;;6.70;99.90;;;;;;5012396;28;20174;-73
2023/12/03 10:56:55;;;;;;;2.63;1.47;;;6.80;99.90;;;;;;5026451;28;20178;-73
2023/12/03 10:59:28;;;;;;;2.50;1.63;;;6.80;99.90;;;;;;5031068;28;20193;-74
2023/12/03 11:01:57;;;;;;;3.60;1.80;;;7.20;99.90;;;;;;5032255;28;20182;-73
2023/12/03 11:04:41;;;;;;;3.93;1.70;;;6.80;99.90;;;;;;5030313;28;20682;-71
2023/12/03 11:07:07;;;;;;;2.77;1.73;;;7.00;99.90;;;;;;5027688;28;20174;-74
2023/12/03 11:09:38;;;;;;;4.43;1.90;;;6.90;99.90;;;;;;5028708;28;20685;-73
2023/12/03 11:12:06;;;;;;;4.13;2.30;;;6.80;99.90;;;;;;5029667;28;20213;-73
2023/12/03 11:14:32;;;;;;;3.87;1.77;;;7.00;99.90;;;;;;5030220;28;20240;-72
2023/12/03 11:17:06;;;;;;;4.00;2.30;;;7.00;99.90;;;;;;5012632;28;20181;-73
2023/12/03 11:19:36;;;;;;;5.30;2.70;;;8.00;99.90;;;;;;5026913;28;20193;-72
2023/12/03 11:22:45;;;;;;;5.23;2.80;;;7.00;99.90;;;;;;5030107;28;20181;-73
2023/12/03 11:25:15;;;;;;;4.83;2.87;;;7.10;99.90;;;;;;5025759;28;20231;-73
2023/12/03 11:27:41;;;;;;;5.57;2.50;;;7.30;99.90;;;;;;5029401;28;20323;-72
2023/12/03 11:30:08;;;;;;;3.33;2.20;;;7.60;99.90;;;;;;5025494;28;20181;-72
2023/12/03 11:32:35;;;;;;;3.23;2.13;;;8.20;99.90;;;;;;5029074;28;20692;-73
2023/12/03 11:35:07;;;;;;;4.37;1.57;;;7.70;99.90;;;;;;5029933;28;20223;-73
2023/12/03 11:37:33;;;;;;;3.53;2.07;;;8.00;99.90;;;;;;5024855;28;20189;-72
2023/12/03 11:40:09;;;;;;;4.47;2.17;;;8.70;99.90;;;;;;5030534;28;20244;-72
2023/12/03 11:42:46;;;;;;;4.23;2.20;;;9.10;99.90;;;;;;5029146;28;20178;-73
2023/12/03 11:45:17;;;;;;;5.10;2.10;;;7.60;99.90;;;;;;5029801;28;20189;-72
2023/12/03 11:48:05;;;;;;;5.17;2.40;;;7.90;99.90;;;;;;5029397;28;20193;-73
2023/12/03 11:50:32;;;;;;;6.30;1.70;;;7.90;99.90;;;;;;5028786;28;20244;-72
2023/12/03 11:52:57;;;;;;;3.90;2.10;;;8.00;99.90;;;;;;5030427;28;20298;-73
2023/12/03 11:55:24;;;;;;;3.50;1.80;;;8.20;99.90;;;;;;5025181;28;20607;-73
2023/12/03 11:57:51;;;;;;;5.30;1.90;;;7.80;99.90;;;;;;5029968;28;20233;-73
2023/12/03 12:00:17;;;;;;;3.37;1.77;;;8.10;99.90;;;;;;5029299;28;20256;-73
2023/12/03 12:02:43;;;;;;;2.33;1.63;;;8.10;99.90;;;;;;5029000;28;20186;-73
2023/12/03 12:05:09;;;;;;;6.73;2.27;;;8.20;99.90;;;;;;5030238;28;20204;-73
2023/12/03 12:07:35;;;;;;;5.87;1.57;;;9.60;99.90;;;;;;5028714;28;20240;-72
2023/12/03 12:10:01;;;;;;;3.73;1.70;;;8.20;99.90;;;;;;5029287;28;20694;-72
2023/12/03 12:12:27;;;;;;;5.43;2.20;;;8.20;99.90;;;;;;5028670;28;20210;-74
2023/12/03 12:14:53;;;;;;;10.43;3.30;;;8.80;99.90;;;;;;5028581;28;20174;-73
2023/12/03 12:17:20;;;;;;;40.50;8.73;;;8.80;99.90;;;;;;5028510;28;20190;-73
2023/12/03 12:19:50;;;;;;;34.97;7.63;;;8.60;99.90;;;;;;5029387;28;20177;-73
2023/12/03 12:22:16;;;;;;;22.57;5.03;;;8.60;99.90;;;;;;5011475;28;20181;-73
2023/12/03 12:24:45;;;;;;;25.83;5.20;;;8.60;99.90;;;;;;5030125;28;20671;-73
2023/12/03 12:27:11;;;;;;;20.23;4.20;;;8.90;99.90;;;;;;5028528;28;20181;-73
2023/12/03 12:29:37;;;;;;;34.23;6.00;;;8.90;99.90;;;;;;5029098;28;20170;-73
2023/12/03 12:32:04;;;;;;;11.70;2.80;;;8.90;99.90;;;;;;5029698;28;20202;-73
2023/12/03 12:34:30;;;;;;;16.70;4.27;;;8.90;99.90;;;;;;5029999;28;20188;-73
2023/12/03 12:37:05;;;;;;;20.67;4.23;;;9.00;99.90;;;;;;5030590;28;20257;-73
2023/12/03 12:39:33;;;;;;;8.17;2.50;;;10.20;99.90;;;;;;5028835;28;20248;-74
2023/12/03 12:41:59;;;;;;;6.30;2.20;;;10.60;99.90;;;;;;5030048;28;20190;-74
2023/12/03 12:44:39;;;;;;;6.63;1.90;;;10.40;99.90;;;;;;5028486;28;20196;-74
2023/12/03 12:47:06;;;;;;;3.23;1.20;;;10.30;99.90;;;;;;5029781;28;20221;-73
2023/12/03 12:49:32;;;;;;;2.80;1.33;;;9.90;99.90;;;;;;5032551;28;20583;-73
2023/12/03 12:52:27;;;;;;;4.83;1.47;;;10.00;99.90;;;;;;5015768;28;20209;-74
2023/12/03 12:54:53;;;;;;;7.77;1.47;;;9.90;99.90;;;;;;5011760;28;20271;-73
2023/12/03 12:57:19;;;;;;;3.90;1.10;;;9.70;99.90;;;;;;5038618;28;20269;-73